sensor_id;sensor_type;location;lat;lon;timestamp;pressure;altitude;pressure_sealevel;temperature;humidity
76424;BME280;65257;52.104;4.268;2022-12-15T00:01:30;100643.91;;;1.04;89.90
76424;BME280;65257;52.104;4.268;2022-12-15T00:04:13;100641.16;;;1.01;90.22
76424;BME280;65257;52.104;4.268;2022-12-15T00:06:58;100638.50;;;1.11;89.40
76424;BME280;65257;52.104;4.268;2022-12-15T00:09:42;100644.44;;;1.11;89.50
76424;BME280;65257;52.104;4.268;2022-12-15T00:12:29;100648.84;;;1.02;89.51
76424;BME280;65257;52.104;4.268;2022-12-15T00:15:13;100649.16;;;1.07;89.20
76424;BME280;65257;52.104;4.268;2022-12-15T00:17:57;100653.00;;;1.02;88.99
76424;BME280;65257;52.104;4.268;2022-12-15T00:20:44;100652.16;;;0.90;89.30
76424;BME280;65257;52.104;4.268;2022-12-15T00:23:28;100648.84;;;0.91;89.48
76424;BME280;65257;52.104;4.268;2022-12-15T00:26:12;100651.94;;;0.87;89.58
76424;BME280;65257;52.104;4.268;2022-12-15T00:29:04;100652.81;;;0.76;89.25
76424;BME280;65257;52.104;4.268;2022-12-15T00:31:48;100659.28;;;0.72;89.52
76424;BME280;65257;52.104;4.268;2022-12-15T00:34:32;100662.69;;;0.61;90.01
76424;BME280;65257;52.104;4.268;2022-12-15T00:37:16;100676.03;;;0.60;90.11
76424;BME280;65257;52.104;4.268;2022-12-15T00:40:00;100674.28;;;0.82;90.18
76424;BME280;65257;52.104;4.268;2022-12-15T00:42:29;100677.78;;;0.73;90.10
76424;BME280;65257;52.104;4.268;2022-12-15T00:44:56;100677.47;;;0.68;90.71
76424;BME280;65257;52.104;4.268;2022-12-15T00:47:23;100690.44;;;1.09;90.41
76424;BME280;65257;52.104;4.268;2022-12-15T00:49:49;100687.47;;;1.03;90.50
76424;BME280;65257;52.104;4.268;2022-12-15T00:52:33;100677.63;;;1.42;89.44
76424;BME280;65257;52.104;4.268;2022-12-15T00:55:17;100674.56;;;1.46;89.09
76424;BME280;65257;52.104;4.268;2022-12-15T00:58:01;100669.91;;;1.52;88.55
76424;BME280;65257;52.104;4.268;2022-12-15T01:00:45;100662.94;;;1.48;88.69
76424;BME280;65257;52.104;4.268;2022-12-15T01:03:35;100664.28;;;1.43;88.79
76424;BME280;65257;52.104;4.268;2022-12-15T01:06:19;100661.63;;;1.42;88.85
76424;BME280;65257;52.104;4.268;2022-12-15T01:09:06;100667.16;;;1.36;88.60
76424;BME280;65257;52.104;4.268;2022-12-15T01:11:54;100665.63;;;1.26;88.50
76424;BME280;65257;52.104;4.268;2022-12-15T01:14:39;100677.28;;;1.13;89.08
76424;BME280;65257;52.104;4.268;2022-12-15T01:17:26;100674.88;;;1.03;89.62
76424;BME280;65257;52.104;4.268;2022-12-15T01:20:10;100682.25;;;1.00;89.33
76424;BME280;65257;52.104;4.268;2022-12-15T01:23:01;100677.84;;;1.09;89.07
76424;BME280;65257;52.104;4.268;2022-12-15T01:25:27;100677.41;;;1.03;89.00
76424;BME280;65257;52.104;4.268;2022-12-15T01:27:53;100686.84;;;0.94;89.48
76424;BME280;65257;52.104;4.268;2022-12-15T01:30:21;100680.91;;;1.05;89.12
76424;BME280;65257;52.104;4.268;2022-12-15T01:32:51;100683.84;;;1.11;89.17
76424;BME280;65257;52.104;4.268;2022-12-15T01:35:17;100687.38;;;1.13;89.11
76424;BME280;65257;52.104;4.268;2022-12-15T01:37:43;100700.06;;;1.03;89.03
76424;BME280;65257;52.104;4.268;2022-12-15T01:40:14;100712.25;;;0.97;89.44
76424;BME280;65257;52.104;4.268;2022-12-15T01:42:58;100715.63;;;0.86;90.12
76424;BME280;65257;52.104;4.268;2022-12-15T01:45:35;100712.34;;;0.98;90.63
76424;BME280;65257;52.104;4.268;2022-12-15T01:48:09;100718.25;;;0.99;90.76
76424;BME280;65257;52.104;4.268;2022-12-15T01:50:44;100709.91;;;1.23;90.54
76424;BME280;65257;52.104;4.268;2022-12-15T01:53:13;100700.09;;;1.39;90.14
76424;BME280;65257;52.104;4.268;2022-12-15T01:55:40;100700.53;;;1.45;89.90
76424;BME280;65257;52.104;4.268;2022-12-15T01:58:07;100705.69;;;1.35;89.56
76424;BME280;65257;52.104;4.268;2022-12-15T02:00:34;100709.84;;;1.46;89.45
76424;BME280;65257;52.104;4.268;2022-12-15T02:03:00;100711.78;;;1.50;89.17
76424;BME280;65257;52.104;4.268;2022-12-15T02:05:28;100712.69;;;1.39;89.00
76424;BME280;65257;52.104;4.268;2022-12-15T02:08:00;100708.09;;;1.45;89.30
76424;BME280;65257;52.104;4.268;2022-12-15T02:10:31;100713.28;;;1.60;88.99
76424;BME280;65257;52.104;4.268;2022-12-15T02:13:15;100716.53;;;1.70;88.59
76424;BME280;65257;52.104;4.268;2022-12-15T02:28:02;100719.06;;;1.34;88.84
76424;BME280;65257;52.104;4.268;2022-12-15T02:33:20;100726.97;;;1.39;89.44
76424;BME280;65257;52.104;4.268;2022-12-15T02:36:06;100724.81;;;1.56;88.38
76424;BME280;65257;52.104;4.268;2022-12-15T02:38:38;100720.09;;;1.49;88.12
76424;BME280;65257;52.104;4.268;2022-12-15T02:41:37;100717.03;;;1.53;88.17
76424;BME280;65257;52.104;4.268;2022-12-15T02:44:20;100729.78;;;1.43;88.77
76424;BME280;65257;52.104;4.268;2022-12-15T03:02:00;100728.75;;;1.28;89.04
76424;BME280;65257;52.104;4.268;2022-12-15T03:04:30;100731.25;;;1.28;89.59
76424;BME280;65257;52.104;4.268;2022-12-15T03:07:01;100730.06;;;1.23;89.23
76424;BME280;65257;52.104;4.268;2022-12-15T03:09:31;100736.44;;;1.18;89.81
76424;BME280;65257;52.104;4.268;2022-12-15T03:11:57;100733.34;;;1.22;90.25
76424;BME280;65257;52.104;4.268;2022-12-15T03:14:26;100733.56;;;1.25;90.13
76424;BME280;65257;52.104;4.268;2022-12-15T03:16:52;100734.41;;;1.37;90.63
76424;BME280;65257;52.104;4.268;2022-12-15T03:19:21;100731.94;;;1.50;90.27
76424;BME280;65257;52.104;4.268;2022-12-15T03:21:53;100739.88;;;1.43;90.30
76424;BME280;65257;52.104;4.268;2022-12-15T03:24:18;100729.06;;;1.57;89.64
76424;BME280;65257;52.104;4.268;2022-12-15T03:26:44;100730.19;;;1.49;89.25
76424;BME280;65257;52.104;4.268;2022-12-15T03:29:12;100727.78;;;1.51;88.78
76424;BME280;65257;52.104;4.268;2022-12-15T03:31:38;100729.06;;;1.57;89.21
76424;BME280;65257;52.104;4.268;2022-12-15T03:34:03;100728.47;;;1.48;89.21
76424;BME280;65257;52.104;4.268;2022-12-15T03:36:28;100741.19;;;1.38;89.32
76424;BME280;65257;52.104;4.268;2022-12-15T03:38:54;100736.16;;;1.38;89.37
76424;BME280;65257;52.104;4.268;2022-12-15T03:41:19;100744.69;;;1.40;89.67
76424;BME280;65257;52.104;4.268;2022-12-15T03:43:44;100744.91;;;1.43;89.68
76424;BME280;65257;52.104;4.268;2022-12-15T03:46:10;100738.34;;;1.34;89.48
76424;BME280;65257;52.104;4.268;2022-12-15T03:48:36;100734.31;;;1.24;89.97
76424;BME280;65257;52.104;4.268;2022-12-15T03:51:01;100737.94;;;1.16;89.93
76424;BME280;65257;52.104;4.268;2022-12-15T03:53:32;100742.22;;;1.17;89.94
76424;BME280;65257;52.104;4.268;2022-12-15T03:55:58;100748.66;;;1.25;90.03
76424;BME280;65257;52.104;4.268;2022-12-15T03:58:24;100750.22;;;1.23;89.91
76424;BME280;65257;52.104;4.268;2022-12-15T04:00:53;100751.53;;;1.18;89.61
76424;BME280;65257;52.104;4.268;2022-12-15T04:03:21;100754.78;;;1.40;89.63
76424;BME280;65257;52.104;4.268;2022-12-15T04:05:46;100753.38;;;1.32;89.38
76424;BME280;65257;52.104;4.268;2022-12-15T04:08:12;100751.81;;;1.46;89.20
76424;BME280;65257;52.104;4.268;2022-12-15T04:10:38;100755.97;;;1.45;89.22
76424;BME280;65257;52.104;4.268;2022-12-15T04:13:06;100753.53;;;1.47;89.19
76424;BME280;65257;52.104;4.268;2022-12-15T04:15:33;100755.22;;;1.46;89.31
76424;BME280;65257;52.104;4.268;2022-12-15T04:18:04;100745.97;;;1.58;88.77
76424;BME280;65257;52.104;4.268;2022-12-15T04:20:30;100744.34;;;1.47;89.04
76424;BME280;65257;52.104;4.268;2022-12-15T04:22:57;100742.75;;;1.36;89.00
76424;BME280;65257;52.104;4.268;2022-12-15T04:25:24;100740.53;;;1.29;89.26
76424;BME280;65257;52.104;4.268;2022-12-15T04:28:11;100739.00;;;1.31;89.16
76424;BME280;65257;52.104;4.268;2022-12-15T04:31:17;100741.75;;;1.34;89.55
76424;BME280;65257;52.104;4.268;2022-12-15T04:34:12;100736.53;;;1.19;89.12
76424;BME280;65257;52.104;4.268;2022-12-15T04:36:57;100747.34;;;1.30;89.10
76424;BME280;65257;52.104;4.268;2022-12-15T04:39:46;100745.44;;;1.39;88.59
76424;BME280;65257;52.104;4.268;2022-12-15T04:42:33;100747.78;;;1.24;89.25
76424;BME280;65257;52.104;4.268;2022-12-15T04:45:19;100749.22;;;1.21;88.75
76424;BME280;65257;52.104;4.268;2022-12-15T04:48:05;100749.50;;;1.37;88.68
76424;BME280;65257;52.104;4.268;2022-12-15T04:50:56;100759.78;;;1.52;88.27
76424;BME280;65257;52.104;4.268;2022-12-15T04:53:41;100755.44;;;1.38;88.62
76424;BME280;65257;52.104;4.268;2022-12-15T04:56:25;100748.41;;;1.34;88.54
76424;BME280;65257;52.104;4.268;2022-12-15T04:59:09;100756.91;;;1.22;88.93
76424;BME280;65257;52.104;4.268;2022-12-15T05:01:53;100755.16;;;1.10;89.09
76424;BME280;65257;52.104;4.268;2022-12-15T05:04:37;100755.06;;;0.97;89.79
76424;BME280;65257;52.104;4.268;2022-12-15T05:07:23;100756.34;;;1.15;89.85
76424;BME280;65257;52.104;4.268;2022-12-15T05:10:08;100758.56;;;0.99;89.84
76424;BME280;65257;52.104;4.268;2022-12-15T05:12:52;100765.13;;;0.85;90.33
76424;BME280;65257;52.104;4.268;2022-12-15T05:15:39;100764.03;;;0.93;90.48
76424;BME280;65257;52.104;4.268;2022-12-15T05:18:23;100762.06;;;1.01;90.42
76424;BME280;65257;52.104;4.268;2022-12-15T05:21:07;100765.13;;;0.97;90.64
76424;BME280;65257;52.104;4.268;2022-12-15T05:23:54;100768.63;;;0.99;90.44
76424;BME280;65257;52.104;4.268;2022-12-15T05:26:38;100762.28;;;1.04;90.92
76424;BME280;65257;52.104;4.268;2022-12-15T05:29:22;100767.09;;;1.01;91.05
76424;BME280;65257;52.104;4.268;2022-12-15T05:32:07;100775.53;;;0.90;90.59
76424;BME280;65257;52.104;4.268;2022-12-15T05:34:34;100773.44;;;0.96;90.90
76424;BME280;65257;52.104;4.268;2022-12-15T05:37:01;100780.56;;;0.90;90.46
76424;BME280;65257;52.104;4.268;2022-12-15T05:39:30;100788.19;;;1.26;90.01
76424;BME280;65257;52.104;4.268;2022-12-15T05:41:56;100777.59;;;1.30;89.58
76424;BME280;65257;52.104;4.268;2022-12-15T05:44:23;100785.19;;;1.66;88.55
76424;BME280;65257;52.104;4.268;2022-12-15T05:46:49;100790.84;;;1.75;87.57
76424;BME280;65257;52.104;4.268;2022-12-15T05:49:16;100783.25;;;1.51;88.50
76424;BME280;65257;52.104;4.268;2022-12-15T05:51:44;100790.81;;;1.39;88.93
76424;BME280;65257;52.104;4.268;2022-12-15T05:54:15;100785.19;;;1.55;88.75
76424;BME280;65257;52.104;4.268;2022-12-15T05:56:41;100785.00;;;1.40;88.29
76424;BME280;65257;52.104;4.268;2022-12-15T05:59:07;100782.31;;;1.25;88.29
76424;BME280;65257;52.104;4.268;2022-12-15T06:01:33;100783.94;;;1.25;89.18
76424;BME280;65257;52.104;4.268;2022-12-15T06:03:59;100778.03;;;1.36;88.95
76424;BME280;65257;52.104;4.268;2022-12-15T06:06:25;100784.44;;;1.44;88.56
76424;BME280;65257;52.104;4.268;2022-12-15T06:08:51;100783.94;;;1.73;87.10
76424;BME280;65257;52.104;4.268;2022-12-15T06:11:18;100794.56;;;1.80;87.36
76424;BME280;65257;52.104;4.268;2022-12-15T06:13:45;100803.09;;;1.82;87.13
76424;BME280;65257;52.104;4.268;2022-12-15T06:16:37;100804.25;;;1.74;87.86
76424;BME280;65257;52.104;4.268;2022-12-15T06:19:02;100799.22;;;1.87;87.35
76424;BME280;65257;52.104;4.268;2022-12-15T06:21:31;100801.06;;;2.02;86.76
76424;BME280;65257;52.104;4.268;2022-12-15T06:23:57;100798.44;;;2.00;86.43
76424;BME280;65257;52.104;4.268;2022-12-15T06:26:41;100799.63;;;2.05;85.96
76424;BME280;65257;52.104;4.268;2022-12-15T06:29:08;100800.31;;;2.03;85.81
76424;BME280;65257;52.104;4.268;2022-12-15T06:31:38;100805.22;;;2.01;86.04
76424;BME280;65257;52.104;4.268;2022-12-15T06:34:06;100795.13;;;2.01;85.96
76424;BME280;65257;52.104;4.268;2022-12-15T06:36:32;100802.34;;;2.08;85.46
76424;BME280;65257;52.104;4.268;2022-12-15T06:38:59;100799.56;;;2.17;85.45
76424;BME280;65257;52.104;4.268;2022-12-15T06:41:25;100808.22;;;2.20;85.25
76424;BME280;65257;52.104;4.268;2022-12-15T06:43:54;100808.47;;;2.12;85.44
76424;BME280;65257;52.104;4.268;2022-12-15T06:46:27;100805.38;;;2.16;85.11
76424;BME280;65257;52.104;4.268;2022-12-15T06:48:53;100801.66;;;1.98;85.38
76424;BME280;65257;52.104;4.268;2022-12-15T06:51:19;100804.84;;;1.95;84.92
76424;BME280;65257;52.104;4.268;2022-12-15T06:53:44;100801.00;;;1.88;85.44
76424;BME280;65257;52.104;4.268;2022-12-15T06:56:26;100807.28;;;1.82;85.59
76424;BME280;65257;52.104;4.268;2022-12-15T06:58:52;100806.69;;;1.61;86.13
76424;BME280;65257;52.104;4.268;2022-12-15T07:01:20;100811.50;;;1.58;86.64
76424;BME280;65257;52.104;4.268;2022-12-15T07:03:48;100807.66;;;1.63;86.68
76424;BME280;65257;52.104;4.268;2022-12-15T07:06:15;100817.53;;;1.60;86.35
76424;BME280;65257;52.104;4.268;2022-12-15T07:08:42;100815.22;;;1.63;86.35
76424;BME280;65257;52.104;4.268;2022-12-15T07:11:11;100812.00;;;1.77;86.38
76424;BME280;65257;52.104;4.268;2022-12-15T07:13:48;100822.28;;;1.80;85.68
76424;BME280;65257;52.104;4.268;2022-12-15T07:16:35;100825.03;;;1.83;85.53
76424;BME280;65257;52.104;4.268;2022-12-15T07:19:00;100820.13;;;1.73;85.46
76424;BME280;65257;52.104;4.268;2022-12-15T07:21:28;100837.34;;;1.67;85.66
76424;BME280;65257;52.104;4.268;2022-12-15T07:23:53;100828.88;;;1.78;86.18
76424;BME280;65257;52.104;4.268;2022-12-15T07:26:22;100831.13;;;1.99;85.65
76424;BME280;65257;52.104;4.268;2022-12-15T07:28:50;100829.16;;;2.31;85.16
76424;BME280;65257;52.104;4.268;2022-12-15T07:31:17;100830.59;;;2.65;83.60
76424;BME280;65257;52.104;4.268;2022-12-15T07:33:42;100822.81;;;2.49;83.13
76424;BME280;65257;52.104;4.268;2022-12-15T07:36:11;100826.22;;;2.63;82.10
76424;BME280;65257;52.104;4.268;2022-12-15T07:38:40;100830.63;;;2.91;80.15
76424;BME280;65257;52.104;4.268;2022-12-15T07:41:07;100824.59;;;2.76;80.87
76424;BME280;65257;52.104;4.268;2022-12-15T07:43:33;100827.72;;;2.72;80.87
76424;BME280;65257;52.104;4.268;2022-12-15T07:45:59;100829.69;;;2.89;80.73
76424;BME280;65257;52.104;4.268;2022-12-15T07:48:25;100825.00;;;2.82;80.62
76424;BME280;65257;52.104;4.268;2022-12-15T07:50:51;100827.50;;;2.69;80.74
76424;BME280;65257;52.104;4.268;2022-12-15T07:53:22;100825.41;;;2.50;81.20
76424;BME280;65257;52.104;4.268;2022-12-15T07:55:55;100822.59;;;2.46;81.62
76424;BME280;65257;52.104;4.268;2022-12-15T07:58:27;100840.81;;;2.42;81.70
76424;BME280;65257;52.104;4.268;2022-12-15T08:00:57;100843.84;;;2.49;81.92
76424;BME280;65257;52.104;4.268;2022-12-15T08:03:23;100837.09;;;2.37;81.80
76424;BME280;65257;52.104;4.268;2022-12-15T08:05:51;100833.69;;;2.36;82.84
76424;BME280;65257;52.104;4.268;2022-12-15T08:08:18;100837.56;;;2.31;82.45
76424;BME280;65257;52.104;4.268;2022-12-15T08:10:44;100833.25;;;2.17;83.54
76424;BME280;65257;52.104;4.268;2022-12-15T08:13:09;100834.91;;;2.17;83.13
76424;BME280;65257;52.104;4.268;2022-12-15T08:15:36;100840.75;;;2.04;83.99
76424;BME280;65257;52.104;4.268;2022-12-15T08:18:03;100839.47;;;1.98;84.06
76424;BME280;65257;52.104;4.268;2022-12-15T08:20:32;100836.97;;;1.86;84.85
76424;BME280;65257;52.104;4.268;2022-12-15T08:22:59;100835.69;;;1.79;85.37
76424;BME280;65257;52.104;4.268;2022-12-15T08:25:24;100839.31;;;2.32;84.38
76424;BME280;65257;52.104;4.268;2022-12-15T08:27:53;100840.38;;;3.11;81.50
76424;BME280;65257;52.104;4.268;2022-12-15T08:30:22;100845.72;;;3.55;78.31
76424;BME280;65257;52.104;4.268;2022-12-15T08:32:48;100853.59;;;3.47;78.47
76424;BME280;65257;52.104;4.268;2022-12-15T08:35:14;100837.81;;;4.32;75.54
76424;BME280;65257;52.104;4.268;2022-12-15T08:37:43;100855.91;;;5.10;73.06
76424;BME280;65257;52.104;4.268;2022-12-15T08:40:12;100845.75;;;5.55;70.97
76424;BME280;65257;52.104;4.268;2022-12-15T08:42:37;100842.16;;;5.66;70.29
76424;BME280;65257;52.104;4.268;2022-12-15T08:45:04;100837.94;;;6.14;68.39
76424;BME280;65257;52.104;4.268;2022-12-15T08:47:32;100849.53;;;6.09;68.53
76424;BME280;65257;52.104;4.268;2022-12-15T08:49:57;100853.25;;;6.80;66.92
76424;BME280;65257;52.104;4.268;2022-12-15T08:52:23;100857.16;;;7.25;64.46
76424;BME280;65257;52.104;4.268;2022-12-15T08:54:49;100847.13;;;7.28;64.59
76424;BME280;65257;52.104;4.268;2022-12-15T08:57:14;100854.19;;;6.82;65.01
76424;BME280;65257;52.104;4.268;2022-12-15T08:59:40;100851.28;;;6.74;65.55
76424;BME280;65257;52.104;4.268;2022-12-15T09:02:08;100853.34;;;6.65;65.70
76424;BME280;65257;52.104;4.268;2022-12-15T09:04:35;100854.09;;;7.32;65.05
76424;BME280;65257;52.104;4.268;2022-12-15T09:07:00;100862.84;;;7.72;64.11
76424;BME280;65257;52.104;4.268;2022-12-15T09:09:28;100855.88;;;8.05;62.50
76424;BME280;65257;52.104;4.268;2022-12-15T09:11:58;100860.75;;;8.19;60.19
76424;BME280;65257;52.104;4.268;2022-12-15T09:14:23;100857.47;;;8.22;61.00
76424;BME280;65257;52.104;4.268;2022-12-15T09:16:49;100857.28;;;7.98;61.67
76424;BME280;65257;52.104;4.268;2022-12-15T09:19:14;100858.47;;;7.17;65.00
76424;BME280;65257;52.104;4.268;2022-12-15T09:21:43;100862.16;;;6.72;66.26
76424;BME280;65257;52.104;4.268;2022-12-15T09:24:12;100868.53;;;6.15;67.20
76424;BME280;65257;52.104;4.268;2022-12-15T09:26:38;100875.91;;;5.80;68.88
76424;BME280;65257;52.104;4.268;2022-12-15T09:29:04;100877.84;;;5.69;69.66
76424;BME280;65257;52.104;4.268;2022-12-15T09:31:32;100883.25;;;5.30;71.38
76424;BME280;65257;52.104;4.268;2022-12-15T09:34:00;100883.50;;;4.91;72.20
76424;BME280;65257;52.104;4.268;2022-12-15T09:36:28;100883.88;;;4.97;72.61
76424;BME280;65257;52.104;4.268;2022-12-15T09:38:55;100902.38;;;4.67;74.01
76424;BME280;65257;52.104;4.268;2022-12-15T09:41:23;100881.63;;;4.31;75.59
76424;BME280;65257;52.104;4.268;2022-12-15T09:49:57;100873.91;;;7.04;67.79
76424;BME280;65257;52.104;4.268;2022-12-15T09:52:16;100874.81;;;7.92;62.77
76424;BME280;65257;52.104;4.268;2022-12-15T09:54:43;100874.97;;;7.25;64.33
76424;BME280;65257;52.104;4.268;2022-12-15T09:57:24;100861.59;;;6.77;65.57
76424;BME280;65257;52.104;4.268;2022-12-15T10:05:09;100884.66;;;5.70;69.38
76424;BME280;65257;52.104;4.268;2022-12-15T10:07:46;100884.91;;;5.44;70.03
76424;BME280;65257;52.104;4.268;2022-12-15T10:13:01;100884.78;;;5.57;67.22
76424;BME280;65257;52.104;4.268;2022-12-15T10:15:45;100881.13;;;5.52;68.53
76424;BME280;65257;52.104;4.268;2022-12-15T10:18:19;100886.38;;;6.01;66.12
76424;BME280;65257;52.104;4.268;2022-12-15T10:20:46;100884.63;;;6.00;67.58
76424;BME280;65257;52.104;4.268;2022-12-15T10:23:14;100894.03;;;5.86;67.96
76424;BME280;65257;52.104;4.268;2022-12-15T10:25:46;100902.75;;;6.06;67.25
76424;BME280;65257;52.104;4.268;2022-12-15T10:28:20;100895.47;;;6.44;64.96
76424;BME280;65257;52.104;4.268;2022-12-15T10:31:58;100902.09;;;6.10;67.45
76424;BME280;65257;52.104;4.268;2022-12-15T10:33:55;100900.25;;;5.77;68.74
76424;BME280;65257;52.104;4.268;2022-12-15T10:36:22;100901.47;;;5.68;68.37
76424;BME280;65257;52.104;4.268;2022-12-15T10:38:47;100893.88;;;5.68;66.87
76424;BME280;65257;52.104;4.268;2022-12-15T10:41:20;100898.69;;;5.64;67.74
76424;BME280;65257;52.104;4.268;2022-12-15T10:43:52;100895.28;;;5.63;66.93
76424;BME280;65257;52.104;4.268;2022-12-15T10:47:08;100895.47;;;5.37;68.54
76424;BME280;65257;52.104;4.268;2022-12-15T10:51:46;100898.88;;;5.67;66.89
76424;BME280;65257;52.104;4.268;2022-12-15T10:54:17;100899.41;;;5.61;66.74
76424;BME280;65257;52.104;4.268;2022-12-15T10:56:59;100906.75;;;5.57;67.74
76424;BME280;65257;52.104;4.268;2022-12-15T10:59:34;100898.88;;;5.52;69.36
76424;BME280;65257;52.104;4.268;2022-12-15T11:05:03;100893.78;;;6.28;64.71
76424;BME280;65257;52.104;4.268;2022-12-15T11:07:37;100895.91;;;6.37;64.99
76424;BME280;65257;52.104;4.268;2022-12-15T11:10:32;100892.28;;;6.16;64.34
76424;BME280;65257;52.104;4.268;2022-12-15T11:13:20;100894.94;;;6.03;65.08
76424;BME280;65257;52.104;4.268;2022-12-15T11:15:52;100892.56;;;6.22;63.95
76424;BME280;65257;52.104;4.268;2022-12-15T11:21:25;100896.53;;;6.01;64.50
76424;BME280;65257;52.104;4.268;2022-12-15T11:24:14;100889.03;;;6.67;63.67
76424;BME280;65257;52.104;4.268;2022-12-15T11:30:16;100886.25;;;7.83;57.30
76424;BME280;65257;52.104;4.268;2022-12-15T11:32:45;100888.53;;;6.58;63.02
76424;BME280;65257;52.104;4.268;2022-12-15T11:35:21;100884.50;;;6.61;61.13
76424;BME280;65257;52.104;4.268;2022-12-15T11:40:50;100894.97;;;7.52;58.01
76424;BME280;65257;52.104;4.268;2022-12-15T11:43:28;100890.84;;;7.90;55.03
76424;BME280;65257;52.104;4.268;2022-12-15T11:46:17;100891.72;;;8.27;54.43
76424;BME280;65257;52.104;4.268;2022-12-15T11:49:02;100887.31;;;8.25;53.86
76424;BME280;65257;52.104;4.268;2022-12-15T11:54:57;100893.69;;;8.52;54.22
76424;BME280;65257;52.104;4.268;2022-12-15T11:57:43;100886.94;;;8.15;54.93
76424;BME280;65257;52.104;4.268;2022-12-15T12:00:18;100887.09;;;8.38;53.50
76424;BME280;65257;52.104;4.268;2022-12-15T12:15:56;100876.88;;;8.95;48.56
76424;BME280;65257;52.104;4.268;2022-12-15T12:18:40;100864.25;;;8.79;49.30
76424;BME280;65257;52.104;4.268;2022-12-15T12:21:15;100865.38;;;8.65;46.62
76424;BME280;65257;52.104;4.268;2022-12-15T12:23:59;100865.44;;;8.66;47.07
76424;BME280;65257;52.104;4.268;2022-12-15T12:27:01;100858.75;;;8.89;45.70
76424;BME280;65257;52.104;4.268;2022-12-15T12:29:45;100863.88;;;8.70;46.52
76424;BME280;65257;52.104;4.268;2022-12-15T12:37:56;100845.63;;;8.80;46.76
76424;BME280;65257;52.104;4.268;2022-12-15T12:43:36;100844.69;;;9.19;46.20
76424;BME280;65257;52.104;4.268;2022-12-15T12:46:17;100844.06;;;9.04;44.74
76424;BME280;65257;52.104;4.268;2022-12-15T12:49:27;100850.34;;;9.12;44.09
76424;BME280;65257;52.104;4.268;2022-12-15T12:51:59;100835.84;;;8.51;47.55
76424;BME280;65257;52.104;4.268;2022-12-15T12:59:41;100837.63;;;7.96;47.54
76424;BME280;65257;52.104;4.268;2022-12-15T13:04:49;100819.34;;;8.24;46.90
76424;BME280;65257;52.104;4.268;2022-12-15T13:07:34;100815.53;;;8.33;47.42
76424;BME280;65257;52.104;4.268;2022-12-15T13:10:21;100824.41;;;8.04;48.34
76424;BME280;65257;52.104;4.268;2022-12-15T13:12:52;100822.00;;;8.07;47.50
76424;BME280;65257;52.104;4.268;2022-12-15T13:20:24;100828.81;;;7.70;49.71
76424;BME280;65257;52.104;4.268;2022-12-15T13:22:51;100815.94;;;7.86;49.68
76424;BME280;65257;52.104;4.268;2022-12-15T13:25:39;100816.69;;;7.47;48.70
76424;BME280;65257;52.104;4.268;2022-12-15T13:41:41;100814.25;;;7.50;50.73
76424;BME280;65257;52.104;4.268;2022-12-15T13:49:50;100816.22;;;7.38;51.87
76424;BME280;65257;52.104;4.268;2022-12-15T13:54:53;100803.38;;;7.00;56.13
76424;BME280;65257;52.104;4.268;2022-12-15T13:57:19;100811.81;;;7.34;55.99
76424;BME280;65257;52.104;4.268;2022-12-15T13:59:47;100808.25;;;7.13;58.29
76424;BME280;65257;52.104;4.268;2022-12-15T14:02:28;100802.06;;;6.40;62.26
76424;BME280;65257;52.104;4.268;2022-12-15T14:05:19;100803.94;;;6.10;61.62
76424;BME280;65257;52.104;4.268;2022-12-15T14:07:56;100798.44;;;6.19;62.69
76424;BME280;65257;52.104;4.268;2022-12-15T14:13:37;100804.47;;;6.21;64.96
76424;BME280;65257;52.104;4.268;2022-12-15T14:18:41;100804.78;;;5.95;67.14
76424;BME280;65257;52.104;4.268;2022-12-15T14:21:19;100802.44;;;5.83;68.89
76424;BME280;65257;52.104;4.268;2022-12-15T14:24:18;100801.84;;;5.87;68.79
76424;BME280;65257;52.104;4.268;2022-12-15T14:26:45;100801.91;;;5.73;66.91
76424;BME280;65257;52.104;4.268;2022-12-15T14:29:15;100803.97;;;5.96;64.64
76424;BME280;65257;52.104;4.268;2022-12-15T14:31:43;100802.56;;;5.85;64.43
76424;BME280;65257;52.104;4.268;2022-12-15T14:34:38;100805.03;;;5.68;66.37
76424;BME280;65257;52.104;4.268;2022-12-15T14:37:10;100797.75;;;5.75;66.75
76424;BME280;65257;52.104;4.268;2022-12-15T14:39:53;100803.28;;;5.67;65.79
76424;BME280;65257;52.104;4.268;2022-12-15T14:42:25;100800.56;;;5.48;66.47
76424;BME280;65257;52.104;4.268;2022-12-15T14:44:57;100799.97;;;5.38;68.01
76424;BME280;65257;52.104;4.268;2022-12-15T14:47:57;100803.78;;;5.15;70.83
76424;BME280;65257;52.104;4.268;2022-12-15T14:50:28;100792.41;;;5.08;69.09
76424;BME280;65257;52.104;4.268;2022-12-15T14:53:20;100794.91;;;4.92;70.40
76424;BME280;65257;52.104;4.268;2022-12-15T14:59:30;100792.44;;;4.94;69.37
76424;BME280;65257;52.104;4.268;2022-12-15T15:02:16;100794.75;;;4.75;70.10
76424;BME280;65257;52.104;4.268;2022-12-15T15:05:03;100790.38;;;4.72;71.48
76424;BME280;65257;52.104;4.268;2022-12-15T15:07:30;100799.78;;;4.89;68.01
76424;BME280;65257;52.104;4.268;2022-12-15T15:09:58;100791.75;;;4.82;68.89
76424;BME280;65257;52.104;4.268;2022-12-15T15:12:40;100796.81;;;4.82;69.60
76424;BME280;65257;52.104;4.268;2022-12-15T15:15:15;100788.41;;;4.83;69.37
76424;BME280;65257;52.104;4.268;2022-12-15T15:20:25;100788.25;;;4.80;68.67
76424;BME280;65257;52.104;4.268;2022-12-15T15:25:38;100781.25;;;4.76;69.20
76424;BME280;65257;52.104;4.268;2022-12-15T15:30:56;100784.59;;;4.75;71.27
76424;BME280;65257;52.104;4.268;2022-12-15T15:33:24;100783.63;;;4.73;71.74
76424;BME280;65257;52.104;4.268;2022-12-15T15:35:51;100782.66;;;4.71;72.02
76424;BME280;65257;52.104;4.268;2022-12-15T15:38:32;100780.38;;;4.61;71.46
76424;BME280;65257;52.104;4.268;2022-12-15T15:41:14;100782.47;;;4.68;71.29
76424;BME280;65257;52.104;4.268;2022-12-15T15:43:41;100779.53;;;4.75;72.31
76424;BME280;65257;52.104;4.268;2022-12-15T15:46:11;100787.13;;;4.75;72.20
76424;BME280;65257;52.104;4.268;2022-12-15T15:48:48;100793.94;;;4.76;70.91
76424;BME280;65257;52.104;4.268;2022-12-15T15:51:14;100779.69;;;4.78;72.40